sensor_id;sensor_type;location;lat;lon;timestamp;P1;durP1;ratioP1;P2;durP2;ratioP2
22924;SDS011;11628;51.072;3.712;2022-12-29T00:00:00;1.15;;;0.98;;
22924;SDS011;11628;51.072;3.712;2022-12-29T00:02:26;1.23;;;1.00;;
22924;SDS011;11628;51.072;3.712;2022-12-29T00:04:51;1.88;;;1.00;;
22924;SDS011;11628;51.072;3.712;2022-12-29T00:07:17;3.00;;;1.40;;
22924;SDS011;11628;51.072;3.712;2022-12-29T00:09:43;2.00;;;1.30;;
22924;SDS011;11628;51.072;3.712;2022-12-29T00:12:09;3.38;;;1.55;;
22924;SDS011;11628;51.072;3.712;2022-12-29T00:14:34;2.08;;;1.08;;
22924;SDS011;11628;51.072;3.712;2022-12-29T00:17:38;1.65;;;1.27;;
22924;SDS011;11628;51.072;3.712;2022-12-29T00:20:04;0.95;;;0.73;;
22924;SDS011;11628;51.072;3.712;2022-12-29T00:22:49;1.52;;;0.73;;
22924;SDS011;11628;51.072;3.712;2022-12-29T00:25:33;1.35;;;0.70;;
22924;SDS011;11628;51.072;3.712;2022-12-29T00:28:20;1.73;;;0.68;;
22924;SDS011;11628;51.072;3.712;2022-12-29T00:31:06;1.50;;;0.80;;
22924;SDS011;11628;51.072;3.712;2022-12-29T00:33:54;2.28;;;1.00;;
22924;SDS011;11628;51.072;3.712;2022-12-29T00:36:39;3.08;;;0.80;;
22924;SDS011;11628;51.072;3.712;2022-12-29T00:39:12;1.85;;;0.70;;
22924;SDS011;11628;51.072;3.712;2022-12-29T00:42:05;2.83;;;0.70;;
22924;SDS011;11628;51.072;3.712;2022-12-29T00:44:51;1.58;;;0.70;;
22924;SDS011;11628;51.072;3.712;2022-12-29T00:47:17;1.00;;;0.52;;
22924;SDS011;11628;51.072;3.712;2022-12-29T00:49:42;1.10;;;0.57;;
22924;SDS011;11628;51.072;3.712;2022-12-29T00:52:09;3.30;;;0.57;;
22924;SDS011;11628;51.072;3.712;2022-12-29T00:54:37;1.42;;;0.82;;
22924;SDS011;11628;51.072;3.712;2022-12-29T00:57:04;3.60;;;0.70;;
22924;SDS011;11628;51.072;3.712;2022-12-29T00:59:32;2.78;;;0.60;;
22924;SDS011;11628;51.072;3.712;2022-12-29T01:02:00;2.00;;;0.60;;
22924;SDS011;11628;51.072;3.712;2022-12-29T01:04:25;4.13;;;0.88;;
22924;SDS011;11628;51.072;3.712;2022-12-29T01:06:52;2.78;;;0.77;;
22924;SDS011;11628;51.072;3.712;2022-12-29T01:09:18;4.80;;;0.65;;
22924;SDS011;11628;51.072;3.712;2022-12-29T01:12:03;3.95;;;0.75;;
22924;SDS011;11628;51.072;3.712;2022-12-29T01:14:31;2.50;;;0.50;;
22924;SDS011;11628;51.072;3.712;2022-12-29T01:16:56;2.53;;;1.05;;
22924;SDS011;11628;51.072;3.712;2022-12-29T01:19:22;3.42;;;0.90;;
22924;SDS011;11628;51.072;3.712;2022-12-29T01:21:49;4.50;;;0.90;;
22924;SDS011;11628;51.072;3.712;2022-12-29T01:24:15;5.47;;;0.90;;
22924;SDS011;11628;51.072;3.712;2022-12-29T01:26:42;5.10;;;1.00;;
22924;SDS011;11628;51.072;3.712;2022-12-29T01:29:07;2.97;;;0.60;;
22924;SDS011;11628;51.072;3.712;2022-12-29T01:31:33;2.35;;;0.60;;
22924;SDS011;11628;51.072;3.712;2022-12-29T01:33:59;3.88;;;0.90;;
22924;SDS011;11628;51.072;3.712;2022-12-29T01:36:25;5.40;;;0.68;;
22924;SDS011;11628;51.072;3.712;2022-12-29T01:38:51;4.45;;;0.80;;
22924;SDS011;11628;51.072;3.712;2022-12-29T01:41:17;6.00;;;1.20;;
22924;SDS011;11628;51.072;3.712;2022-12-29T01:43:44;2.95;;;0.68;;
22924;SDS011;11628;51.072;3.712;2022-12-29T01:51:42;4.05;;;0.98;;
22924;SDS011;11628;51.072;3.712;2022-12-29T01:54:35;3.63;;;0.77;;
22924;SDS011;11628;51.072;3.712;2022-12-29T01:57:06;3.50;;;0.93;;
22924;SDS011;11628;51.072;3.712;2022-12-29T01:59:38;3.90;;;1.63;;
22924;SDS011;11628;51.072;3.712;2022-12-29T02:02:08;2.95;;;0.77;;
22924;SDS011;11628;51.072;3.712;2022-12-29T02:04:34;5.70;;;1.13;;
22924;SDS011;11628;51.072;3.712;2022-12-29T02:07:05;4.40;;;1.25;;
22924;SDS011;11628;51.072;3.712;2022-12-29T02:09:36;3.63;;;0.80;;
22924;SDS011;11628;51.072;3.712;2022-12-29T02:12:02;3.47;;;0.80;;
22924;SDS011;11628;51.072;3.712;2022-12-29T02:14:28;6.05;;;1.05;;
22924;SDS011;11628;51.072;3.712;2022-12-29T02:17:08;5.65;;;0.85;;
22924;SDS011;11628;51.072;3.712;2022-12-29T02:36:40;3.88;;;0.85;;
22924;SDS011;11628;51.072;3.712;2022-12-29T02:39:19;2.20;;;0.70;;
22924;SDS011;11628;51.072;3.712;2022-12-29T02:44:32;5.25;;;1.45;;
22924;SDS011;11628;51.072;3.712;2022-12-29T02:47:30;4.20;;;0.82;;
22924;SDS011;11628;51.072;3.712;2022-12-29T02:52:42;2.58;;;0.70;;
22924;SDS011;11628;51.072;3.712;2022-12-29T02:55:19;4.95;;;0.88;;
22924;SDS011;11628;51.072;3.712;2022-12-29T02:57:45;4.30;;;0.82;;
22924;SDS011;11628;51.072;3.712;2022-12-29T03:00:14;3.65;;;1.02;;
22924;SDS011;11628;51.072;3.712;2022-12-29T03:05:26;5.78;;;1.05;;
22924;SDS011;11628;51.072;3.712;2022-12-29T03:13:43;4.10;;;1.30;;
22924;SDS011;11628;51.072;3.712;2022-12-29T03:16:35;6.30;;;1.00;;
22924;SDS011;11628;51.072;3.712;2022-12-29T03:21:46;7.30;;;1.38;;
22924;SDS011;11628;51.072;3.712;2022-12-29T03:24:34;8.82;;;1.40;;
22924;SDS011;11628;51.072;3.712;2022-12-29T03:27:05;5.30;;;0.70;;
22924;SDS011;11628;51.072;3.712;2022-12-29T03:29:35;9.23;;;1.50;;
22924;SDS011;11628;51.072;3.712;2022-12-29T03:32:05;8.70;;;1.08;;
22924;SDS011;11628;51.072;3.712;2022-12-29T03:34:34;4.30;;;1.00;;
22924;SDS011;11628;51.072;3.712;2022-12-29T03:37:02;7.70;;;1.15;;
22924;SDS011;11628;51.072;3.712;2022-12-29T03:39:34;8.32;;;1.30;;
22924;SDS011;11628;51.072;3.712;2022-12-29T03:42:04;4.22;;;1.27;;
22924;SDS011;11628;51.072;3.712;2022-12-29T03:44:38;6.10;;;0.80;;
22924;SDS011;11628;51.072;3.712;2022-12-29T03:47:06;11.85;;;1.50;;
22924;SDS011;11628;51.072;3.712;2022-12-29T03:49:33;7.32;;;1.65;;
22924;SDS011;11628;51.072;3.712;2022-12-29T03:51:59;9.20;;;1.48;;
22924;SDS011;11628;51.072;3.712;2022-12-29T03:54:25;5.55;;;1.23;;
22924;SDS011;11628;51.072;3.712;2022-12-29T03:56:50;6.28;;;0.93;;
22924;SDS011;11628;51.072;3.712;2022-12-29T03:59:16;5.90;;;0.90;;
22924;SDS011;11628;51.072;3.712;2022-12-29T04:01:42;7.10;;;1.55;;
22924;SDS011;11628;51.072;3.712;2022-12-29T04:04:07;8.13;;;1.30;;
22924;SDS011;11628;51.072;3.712;2022-12-29T04:06:33;3.38;;;0.80;;
22924;SDS011;11628;51.072;3.712;2022-12-29T04:08:59;3.20;;;0.70;;
22924;SDS011;11628;51.072;3.712;2022-12-29T04:11:25;7.75;;;1.23;;
22924;SDS011;11628;51.072;3.712;2022-12-29T04:13:50;8.82;;;1.20;;
22924;SDS011;11628;51.072;3.712;2022-12-29T04:16:16;10.35;;;1.38;;
22924;SDS011;11628;51.072;3.712;2022-12-29T04:18:42;7.30;;;1.77;;
22924;SDS011;11628;51.072;3.712;2022-12-29T04:21:07;8.52;;;1.63;;
22924;SDS011;11628;51.072;3.712;2022-12-29T04:23:36;10.45;;;1.77;;
22924;SDS011;11628;51.072;3.712;2022-12-29T04:26:03;6.43;;;1.05;;
22924;SDS011;11628;51.072;3.712;2022-12-29T04:28:32;6.78;;;1.52;;
22924;SDS011;11628;51.072;3.712;2022-12-29T04:30:58;7.78;;;1.75;;
22924;SDS011;11628;51.072;3.712;2022-12-29T04:33:24;7.85;;;1.05;;
22924;SDS011;11628;51.072;3.712;2022-12-29T04:35:50;4.75;;;0.80;;
22924;SDS011;11628;51.072;3.712;2022-12-29T04:38:18;5.57;;;0.73;;
22924;SDS011;11628;51.072;3.712;2022-12-29T04:40:45;5.53;;;1.48;;
22924;SDS011;11628;51.072;3.712;2022-12-29T04:43:12;5.95;;;0.93;;
22924;SDS011;11628;51.072;3.712;2022-12-29T04:45:38;3.78;;;0.80;;
22924;SDS011;11628;51.072;3.712;2022-12-29T04:48:08;6.40;;;1.23;;
22924;SDS011;11628;51.072;3.712;2022-12-29T04:50:33;3.40;;;1.08;;
22924;SDS011;11628;51.072;3.712;2022-12-29T04:52:59;6.53;;;0.95;;
22924;SDS011;11628;51.072;3.712;2022-12-29T04:55:25;3.70;;;0.82;;
22924;SDS011;11628;51.072;3.712;2022-12-29T04:57:51;7.80;;;1.17;;
22924;SDS011;11628;51.072;3.712;2022-12-29T05:00:17;5.80;;;1.00;;
22924;SDS011;11628;51.072;3.712;2022-12-29T05:02:42;6.00;;;0.90;;
22924;SDS011;11628;51.072;3.712;2022-12-29T05:05:08;3.15;;;0.82;;
22924;SDS011;11628;51.072;3.712;2022-12-29T05:07:35;2.55;;;0.63;;
22924;SDS011;11628;51.072;3.712;2022-12-29T05:10:00;5.60;;;0.82;;
22924;SDS011;11628;51.072;3.712;2022-12-29T05:12:29;6.03;;;1.10;;
22924;SDS011;11628;51.072;3.712;2022-12-29T05:14:59;2.53;;;0.63;;
22924;SDS011;11628;51.072;3.712;2022-12-29T05:17:25;7.20;;;1.20;;
22924;SDS011;11628;51.072;3.712;2022-12-29T05:19:51;4.07;;;0.90;;
22924;SDS011;11628;51.072;3.712;2022-12-29T05:22:17;5.97;;;0.88;;
22924;SDS011;11628;51.072;3.712;2022-12-29T05:24:42;6.20;;;0.98;;
22924;SDS011;11628;51.072;3.712;2022-12-29T05:27:08;6.75;;;1.10;;
22924;SDS011;11628;51.072;3.712;2022-12-29T05:29:34;7.70;;;1.13;;
22924;SDS011;11628;51.072;3.712;2022-12-29T05:31:59;6.38;;;0.95;;
22924;SDS011;11628;51.072;3.712;2022-12-29T05:34:25;8.43;;;1.10;;
22924;SDS011;11628;51.072;3.712;2022-12-29T05:36:51;7.35;;;1.02;;
22924;SDS011;11628;51.072;3.712;2022-12-29T05:39:16;5.80;;;1.23;;
22924;SDS011;11628;51.072;3.712;2022-12-29T05:41:42;4.95;;;0.82;;
22924;SDS011;11628;51.072;3.712;2022-12-29T05:44:09;8.70;;;1.65;;
22924;SDS011;11628;51.072;3.712;2022-12-29T05:46:35;8.07;;;0.90;;
22924;SDS011;11628;51.072;3.712;2022-12-29T05:49:01;4.47;;;0.90;;
22924;SDS011;11628;51.072;3.712;2022-12-29T05:51:28;6.45;;;1.48;;
22924;SDS011;11628;51.072;3.712;2022-12-29T05:53:54;5.32;;;0.90;;
22924;SDS011;11628;51.072;3.712;2022-12-29T05:56:19;5.85;;;0.93;;
22924;SDS011;11628;51.072;3.712;2022-12-29T05:58:45;7.97;;;1.00;;
22924;SDS011;11628;51.072;3.712;2022-12-29T06:01:11;7.30;;;0.65;;
22924;SDS011;11628;51.072;3.712;2022-12-29T06:03:37;6.00;;;1.05;;
22924;SDS011;11628;51.072;3.712;2022-12-29T06:06:02;11.05;;;1.67;;
22924;SDS011;11628;51.072;3.712;2022-12-29T06:08:28;8.05;;;1.23;;
22924;SDS011;11628;51.072;3.712;2022-12-29T06:10:54;7.38;;;1.05;;
22924;SDS011;11628;51.072;3.712;2022-12-29T06:13:19;7.57;;;1.58;;
22924;SDS011;11628;51.072;3.712;2022-12-29T06:15:47;10.35;;;1.40;;
22924;SDS011;11628;51.072;3.712;2022-12-29T06:18:14;9.82;;;1.60;;
22924;SDS011;11628;51.072;3.712;2022-12-29T06:20:40;8.93;;;1.30;;
22924;SDS011;11628;51.072;3.712;2022-12-29T06:23:06;9.60;;;1.40;;
22924;SDS011;11628;51.072;3.712;2022-12-29T06:25:33;8.32;;;1.83;;
22924;SDS011;11628;51.072;3.712;2022-12-29T06:28:01;8.05;;;1.42;;
22924;SDS011;11628;51.072;3.712;2022-12-29T06:30:29;8.43;;;1.30;;
22924;SDS011;11628;51.072;3.712;2022-12-29T06:32:55;7.35;;;1.45;;
22924;SDS011;11628;51.072;3.712;2022-12-29T06:35:22;10.02;;;1.80;;
22924;SDS011;11628;51.072;3.712;2022-12-29T06:37:48;11.25;;;2.15;;
22924;SDS011;11628;51.072;3.712;2022-12-29T06:40:14;10.73;;;1.98;;
22924;SDS011;11628;51.072;3.712;2022-12-29T06:42:40;9.70;;;2.25;;
22924;SDS011;11628;51.072;3.712;2022-12-29T06:45:06;13.45;;;2.60;;
22924;SDS011;11628;51.072;3.712;2022-12-29T06:47:32;10.15;;;1.48;;
22924;SDS011;11628;51.072;3.712;2022-12-29T06:49:59;12.40;;;2.20;;
22924;SDS011;11628;51.072;3.712;2022-12-29T06:52:24;13.93;;;1.70;;
22924;SDS011;11628;51.072;3.712;2022-12-29T06:54:50;11.75;;;3.15;;
22924;SDS011;11628;51.072;3.712;2022-12-29T06:57:16;14.32;;;2.22;;
22924;SDS011;11628;51.072;3.712;2022-12-29T06:59:41;12.18;;;2.72;;
22924;SDS011;11628;51.072;3.712;2022-12-29T07:02:09;12.85;;;2.17;;
22924;SDS011;11628;51.072;3.712;2022-12-29T07:04:36;7.72;;;1.90;;
22924;SDS011;11628;51.072;3.712;2022-12-29T07:07:02;8.75;;;1.50;;
22924;SDS011;11628;51.072;3.712;2022-12-29T07:09:28;14.13;;;2.50;;
22924;SDS011;11628;51.072;3.712;2022-12-29T07:11:53;11.40;;;2.35;;
22924;SDS011;11628;51.072;3.712;2022-12-29T07:14:19;17.08;;;3.08;;
22924;SDS011;11628;51.072;3.712;2022-12-29T07:16:45;10.88;;;2.47;;
22924;SDS011;11628;51.072;3.712;2022-12-29T07:19:10;7.07;;;1.70;;
22924;SDS011;11628;51.072;3.712;2022-12-29T07:21:36;10.32;;;1.50;;
22924;SDS011;11628;51.072;3.712;2022-12-29T07:24:02;7.63;;;1.83;;
22924;SDS011;11628;51.072;3.712;2022-12-29T07:26:28;11.20;;;2.17;;
22924;SDS011;11628;51.072;3.712;2022-12-29T07:28:53;9.77;;;1.90;;
22924;SDS011;11628;51.072;3.712;2022-12-29T07:31:20;13.20;;;2.03;;
22924;SDS011;11628;51.072;3.712;2022-12-29T07:33:47;9.02;;;2.15;;
22924;SDS011;11628;51.072;3.712;2022-12-29T07:36:13;11.50;;;1.80;;
22924;SDS011;11628;51.072;3.712;2022-12-29T07:38:42;7.80;;;1.52;;
22924;SDS011;11628;51.072;3.712;2022-12-29T07:41:08;11.25;;;1.73;;
22924;SDS011;11628;51.072;3.712;2022-12-29T07:43:34;10.85;;;2.72;;
22924;SDS011;11628;51.072;3.712;2022-12-29T07:45:59;7.55;;;1.55;;
22924;SDS011;11628;51.072;3.712;2022-12-29T07:48:26;8.80;;;1.73;;
22924;SDS011;11628;51.072;3.712;2022-12-29T07:50:52;10.50;;;1.70;;
22924;SDS011;11628;51.072;3.712;2022-12-29T07:53:19;13.30;;;2.30;;
22924;SDS011;11628;51.072;3.712;2022-12-29T07:55:46;9.18;;;1.60;;
22924;SDS011;11628;51.072;3.712;2022-12-29T07:58:12;13.60;;;2.53;;
22924;SDS011;11628;51.072;3.712;2022-12-29T08:00:38;12.63;;;2.45;;
22924;SDS011;11628;51.072;3.712;2022-12-29T08:03:04;11.82;;;1.85;;
22924;SDS011;11628;51.072;3.712;2022-12-29T08:05:33;8.60;;;1.58;;
22924;SDS011;11628;51.072;3.712;2022-12-29T08:07:59;13.68;;;1.80;;
22924;SDS011;11628;51.072;3.712;2022-12-29T08:10:25;11.32;;;2.60;;
22924;SDS011;11628;51.072;3.712;2022-12-29T08:12:51;12.63;;;1.75;;
22924;SDS011;11628;51.072;3.712;2022-12-29T08:15:16;10.00;;;2.30;;
22924;SDS011;11628;51.072;3.712;2022-12-29T08:17:42;12.18;;;1.85;;
22924;SDS011;11628;51.072;3.712;2022-12-29T08:20:08;12.52;;;1.70;;
22924;SDS011;11628;51.072;3.712;2022-12-29T08:22:34;19.05;;;2.03;;
22924;SDS011;11628;51.072;3.712;2022-12-29T08:25:00;13.80;;;1.67;;
22924;SDS011;11628;51.072;3.712;2022-12-29T08:27:26;10.82;;;2.05;;
22924;SDS011;11628;51.072;3.712;2022-12-29T08:29:52;12.82;;;2.15;;
22924;SDS011;11628;51.072;3.712;2022-12-29T08:32:18;13.38;;;2.42;;
22924;SDS011;11628;51.072;3.712;2022-12-29T08:34:43;9.20;;;1.88;;
22924;SDS011;11628;51.072;3.712;2022-12-29T08:37:09;15.52;;;2.17;;
22924;SDS011;11628;51.072;3.712;2022-12-29T08:39:35;9.23;;;2.03;;
22924;SDS011;11628;51.072;3.712;2022-12-29T08:42:00;10.07;;;1.48;;
22924;SDS011;11628;51.072;3.712;2022-12-29T08:44:26;13.35;;;2.47;;
22924;SDS011;11628;51.072;3.712;2022-12-29T08:46:52;9.65;;;2.20;;
22924;SDS011;11628;51.072;3.712;2022-12-29T08:49:18;11.80;;;2.38;;
22924;SDS011;11628;51.072;3.712;2022-12-29T08:51:43;17.92;;;2.53;;
22924;SDS011;11628;51.072;3.712;2022-12-29T08:54:09;10.18;;;2.33;;
22924;SDS011;11628;51.072;3.712;2022-12-29T08:56:35;12.18;;;2.30;;
22924;SDS011;11628;51.072;3.712;2022-12-29T08:59:01;11.27;;;2.65;;
22924;SDS011;11628;51.072;3.712;2022-12-29T09:01:27;13.73;;;2.00;;
22924;SDS011;11628;51.072;3.712;2022-12-29T09:03:53;15.07;;;2.45;;
22924;SDS011;11628;51.072;3.712;2022-12-29T09:06:19;17.95;;;3.55;;
22924;SDS011;11628;51.072;3.712;2022-12-29T09:08:46;15.73;;;2.30;;
22924;SDS011;11628;51.072;3.712;2022-12-29T09:11:13;15.25;;;2.58;;
22924;SDS011;11628;51.072;3.712;2022-12-29T09:13:41;14.25;;;2.45;;
22924;SDS011;11628;51.072;3.712;2022-12-29T09:16:07;14.40;;;2.20;;
22924;SDS011;11628;51.072;3.712;2022-12-29T09:18:33;17.35;;;2.08;;
22924;SDS011;11628;51.072;3.712;2022-12-29T09:20:59;9.50;;;1.50;;
22924;SDS011;11628;51.072;3.712;2022-12-29T09:23:26;18.13;;;2.10;;
22924;SDS011;11628;51.072;3.712;2022-12-29T09:25:52;15.40;;;1.98;;
22924;SDS011;11628;51.072;3.712;2022-12-29T09:28:19;14.40;;;1.95;;
22924;SDS011;11628;51.072;3.712;2022-12-29T09:30:45;9.93;;;1.92;;
22924;SDS011;11628;51.072;3.712;2022-12-29T09:33:11;14.75;;;2.00;;
22924;SDS011;11628;51.072;3.712;2022-12-29T09:35:40;8.35;;;1.73;;
22924;SDS011;11628;51.072;3.712;2022-12-29T09:38:07;7.35;;;1.98;;
22924;SDS011;11628;51.072;3.712;2022-12-29T09:40:33;17.67;;;3.03;;
22924;SDS011;11628;51.072;3.712;2022-12-29T09:48:16;15.77;;;3.00;;
22924;SDS011;11628;51.072;3.712;2022-12-29T09:50:47;14.82;;;2.83;;
22924;SDS011;11628;51.072;3.712;2022-12-29T09:53:21;19.17;;;3.65;;
22924;SDS011;11628;51.072;3.712;2022-12-29T09:55:54;21.80;;;3.08;;
22924;SDS011;11628;51.072;3.712;2022-12-29T10:06:30;19.52;;;2.85;;
22924;SDS011;11628;51.072;3.712;2022-12-29T10:09:09;17.42;;;2.45;;
22924;SDS011;11628;51.072;3.712;2022-12-29T10:14:33;15.25;;;2.22;;
22924;SDS011;11628;51.072;3.712;2022-12-29T10:25:55;19.92;;;3.35;;
22924;SDS011;11628;51.072;3.712;2022-12-29T10:28:33;18.85;;;2.13;;
22924;SDS011;11628;51.072;3.712;2022-12-29T10:31:03;17.08;;;2.22;;
22924;SDS011;11628;51.072;3.712;2022-12-29T10:33:35;13.23;;;2.42;;
22924;SDS011;11628;51.072;3.712;2022-12-29T10:41:36;16.42;;;3.05;;
22924;SDS011;11628;51.072;3.712;2022-12-29T10:44:07;11.18;;;2.17;;
22924;SDS011;11628;51.072;3.712;2022-12-29T10:46:36;10.00;;;1.92;;
22924;SDS011;11628;51.072;3.712;2022-12-29T10:49:03;10.07;;;1.77;;
22924;SDS011;11628;51.072;3.712;2022-12-29T10:51:32;6.25;;;1.13;;
22924;SDS011;11628;51.072;3.712;2022-12-29T10:54:06;10.93;;;1.95;;
22924;SDS011;11628;51.072;3.712;2022-12-29T11:02:00;12.90;;;6.03;;
22924;SDS011;11628;51.072;3.712;2022-12-29T11:07:18;11.00;;;3.20;;
22924;SDS011;11628;51.072;3.712;2022-12-29T11:09:45;8.05;;;1.55;;
22924;SDS011;11628;51.072;3.712;2022-12-29T11:15:00;9.35;;;2.40;;
22924;SDS011;11628;51.072;3.712;2022-12-29T11:17:57;8.80;;;1.98;;
22924;SDS011;11628;51.072;3.712;2022-12-29T11:20:35;3.63;;;1.33;;
22924;SDS011;11628;51.072;3.712;2022-12-29T11:23:21;11.70;;;2.67;;
22924;SDS011;11628;51.072;3.712;2022-12-29T11:28:39;10.40;;;3.20;;
22924;SDS011;11628;51.072;3.712;2022-12-29T11:31:07;10.55;;;1.88;;
22924;SDS011;11628;51.072;3.712;2022-12-29T11:33:35;9.93;;;1.65;;
22924;SDS011;11628;51.072;3.712;2022-12-29T11:38:34;9.20;;;1.92;;
22924;SDS011;11628;51.072;3.712;2022-12-29T11:41:05;12.07;;;2.20;;
22924;SDS011;11628;51.072;3.712;2022-12-29T11:43:41;12.98;;;2.60;;
22924;SDS011;11628;51.072;3.712;2022-12-29T11:46:18;14.07;;;2.72;;
22924;SDS011;11628;51.072;3.712;2022-12-29T11:48:47;10.98;;;1.98;;
22924;SDS011;11628;51.072;3.712;2022-12-29T11:51:20;15.38;;;2.33;;
22924;SDS011;11628;51.072;3.712;2022-12-29T11:53:52;14.00;;;2.20;;
22924;SDS011;11628;51.072;3.712;2022-12-29T11:56:42;18.20;;;2.40;;
22924;SDS011;11628;51.072;3.712;2022-12-29T12:01:52;9.68;;;1.90;;
22924;SDS011;11628;51.072;3.712;2022-12-29T12:04:21;15.15;;;2.55;;
22924;SDS011;11628;51.072;3.712;2022-12-29T12:10:02;13.98;;;2.53;;
22924;SDS011;11628;51.072;3.712;2022-12-29T12:12:51;13.32;;;2.45;;
22924;SDS011;11628;51.072;3.712;2022-12-29T12:15:40;12.85;;;2.38;;
22924;SDS011;11628;51.072;3.712;2022-12-29T12:18:15;15.10;;;2.63;;
22924;SDS011;11628;51.072;3.712;2022-12-29T12:26:32;14.93;;;3.22;;
22924;SDS011;11628;51.072;3.712;2022-12-29T12:29:20;13.48;;;2.50;;
22924;SDS011;11628;51.072;3.712;2022-12-29T12:32:01;15.82;;;3.10;;
22924;SDS011;11628;51.072;3.712;2022-12-29T12:34:50;12.10;;;2.55;;
22924;SDS011;11628;51.072;3.712;2022-12-29T13:16:20;11.67;;;1.67;;
22924;SDS011;11628;51.072;3.712;2022-12-29T13:21:58;9.02;;;1.70;;
22924;SDS011;11628;51.072;3.712;2022-12-29T13:27:31;6.68;;;1.02;;
22924;SDS011;11628;51.072;3.712;2022-12-29T13:40:59;6.78;;;0.90;;
22924;SDS011;11628;51.072;3.712;2022-12-29T13:43:46;6.75;;;1.58;;
22924;SDS011;11628;51.072;3.712;2022-12-29T13:46:16;4.72;;;1.40;;
22924;SDS011;11628;51.072;3.712;2022-12-29T13:51:27;6.25;;;1.70;;
22924;SDS011;11628;51.072;3.712;2022-12-29T14:02:30;3.88;;;0.95;;
22924;SDS011;11628;51.072;3.712;2022-12-29T14:05:29;4.47;;;0.90;;
22924;SDS011;11628;51.072;3.712;2022-12-29T14:08:03;7.20;;;1.20;;
22924;SDS011;11628;51.072;3.712;2022-12-29T14:10:34;7.28;;;1.60;;
22924;SDS011;11628;51.072;3.712;2022-12-29T14:15:37;5.45;;;1.67;;
22924;SDS011;11628;51.072;3.712;2022-12-29T14:18:11;7.57;;;1.80;;
22924;SDS011;11628;51.072;3.712;2022-12-29T14:20:55;5.20;;;1.13;;
22924;SDS011;11628;51.072;3.712;2022-12-29T14:23:28;5.07;;;1.20;;
22924;SDS011;11628;51.072;3.712;2022-12-29T14:28:31;6.40;;;1.33;;
22924;SDS011;11628;51.072;3.712;2022-12-29T14:31:00;5.50;;;1.35;;
22924;SDS011;11628;51.072;3.712;2022-12-29T14:33:29;7.53;;;1.55;;
22924;SDS011;11628;51.072;3.712;2022-12-29T14:36:17;4.50;;;1.38;;
22924;SDS011;11628;51.072;3.712;2022-12-29T14:38:48;5.38;;;1.08;;
22924;SDS011;11628;51.072;3.712;2022-12-29T14:41:24;5.45;;;1.00;;
22924;SDS011;11628;51.072;3.712;2022-12-29T14:43:58;8.35;;;1.70;;
22924;SDS011;11628;51.072;3.712;2022-12-29T14:46:41;7.45;;;1.20;;
22924;SDS011;11628;51.072;3.712;2022-12-29T14:49:39;6.00;;;1.33;;
22924;SDS011;11628;51.072;3.712;2022-12-29T14:52:18;8.07;;;1.10;;
22924;SDS011;11628;51.072;3.712;2022-12-29T14:54:53;11.80;;;6.43;;
22924;SDS011;11628;51.072;3.712;2022-12-29T14:59:54;5.18;;;1.50;;
22924;SDS011;11628;51.072;3.712;2022-12-29T15:02:34;6.85;;;1.55;;
22924;SDS011;11628;51.072;3.712;2022-12-29T15:05:05;6.18;;;1.02;;
22924;SDS011;11628;51.072;3.712;2022-12-29T15:07:49;7.73;;;1.97;;
22924;SDS011;11628;51.072;3.712;2022-12-29T15:10:15;9.45;;;2.20;;
22924;SDS011;11628;51.072;3.712;2022-12-29T15:12:49;9.30;;;2.28;;
22924;SDS011;11628;51.072;3.712;2022-12-29T15:15:24;9.20;;;1.85;;
22924;SDS011;11628;51.072;3.712;2022-12-29T15:17:51;12.10;;;2.70;;
22924;SDS011;11628;51.072;3.712;2022-12-29T15:20:28;13.18;;;2.45;;
22924;SDS011;11628;51.072;3.712;2022-12-29T15:25:27;8.73;;;2.08;;
22924;SDS011;11628;51.072;3.712;2022-12-29T15:27:54;6.40;;;1.40;;
22924;SDS011;11628;51.072;3.712;2022-12-29T15:30:25;12.25;;;2.00;;
22924;SDS011;11628;51.072;3.712;2022-12-29T15:32:51;12.52;;;3.05;;
22924;SDS011;11628;51.072;3.712;2022-12-29T15:35:37;9.43;;;2.55;;
22924;SDS011;11628;51.072;3.712;2022-12-29T15:38:15;8.40;;;2.05;;
22924;SDS011;11628;51.072;3.712;2022-12-29T15:40:58;11.07;;;2.38;;
22924;SDS011;11628;51.072;3.712;2022-12-29T15:45:55;10.75;;;1.60;;
22924;SDS011;11628;51.072;3.712;2022-12-29T15:48:22;5.43;;;1.45;;
22924;SDS011;11628;51.072;3.712;2022-12-29T15:50:49;8.43;;;1.30;;
22924;SDS011;11628;51.072;3.712;2022-12-29T15:53:22;9.40;;;1.95;;
22924;SDS011;11628;51.072;3.712;2022-12-29T15:55:56;12.60;;;2.30;;
22924;SDS011;11628;51.072;3.712;2022-12-29T15:58:26;10.25;;;1.70;;
22924;SDS011;11628;51.072;3.712;2022-12-29T16:00:57;12.32;;;2.28;;
22924;SDS011;11628;51.072;3.712;2022-12-29T16:03:25;13.77;;;2.78;;
22924;SDS011;11628;51.072;3.712;2022-12-29T16:05:56;12.82;;;3.05;;
22924;SDS011;11628;51.072;3.712;2022-12-29T16:08:35;11.90;;;2.38;;
22924;SDS011;11628;51.072;3.712;2022-12-29T16:11:04;13.18;;;2.45;;
22924;SDS011;11628;51.072;3.712;2022-12-29T16:13:47;9.48;;;2.00;;
22924;SDS011;11628;51.072;3.712;2022-12-29T16:16:19;11.98;;;1.77;;
22924;SDS011;11628;51.072;3.712;2022-12-29T16:18:56;21.42;;;5.90;;
22924;SDS011;11628;51.072;3.712;2022-12-29T16:21:31;11.18;;;2.90;;
22924;SDS011;11628;51.072;3.712;2022-12-29T16:24:01;11.32;;;2.72;;
22924;SDS011;11628;51.072;3.712;2022-12-29T16:26:30;10.38;;;3.00;;
22924;SDS011;11628;51.072;3.712;2022-12-29T16:28:57;10.80;;;3.10;;
22924;SDS011;11628;51.072;3.712;2022-12-29T16:34:22;15.70;;;2.78;;
22924;SDS011;11628;51.072;3.712;2022-12-29T16:36:59;18.67;;;3.90;;
22924;SDS011;11628;51.072;3.712;2022-12-29T16:39:30;15.40;;;3.15;;
22924;SDS011;11628;51.072;3.712;2022-12-29T16:42:01;23.58;;;4.10;;
22924;SDS011;11628;51.072;3.712;2022-12-29T16:47:51;11.73;;;2.95;;
22924;SDS011;11628;51.072;3.712;2022-12-29T16:50:43;13.45;;;3.08;;
22924;SDS011;11628;51.072;3.712;2022-12-29T16:53:26;12.65;;;3.88;;
22924;SDS011;11628;51.072;3.712;2022-12-29T16:55:57;20.75;;;4.32;;
22924;SDS011;11628;51.072;3.712;2022-12-29T16:58:33;12.93;;;3.75;;
22924;SDS011;11628;51.072;3.712;2022-12-29T17:01:00;19.58;;;4.72;;
22924;SDS011;11628;51.072;3.712;2022-12-29T17:03:35;11.45;;;2.80;;
22924;SDS011;11628;51.072;3.712;2022-12-29T17:06:05;15.88;;;3.88;;
22924;SDS011;11628;51.072;3.712;2022-12-29T17:08:38;13.98;;;2.80;;
22924;SDS011;11628;51.072;3.712;2022-12-29T17:11:08;13.13;;;2.33;;
22924;SDS011;11628;51.072;3.712;2022-12-29T17:14:10;12.90;;;4.03;;
22924;SDS011;11628;51.072;3.712;2022-12-29T17:16:57;11.85;;;2.88;;
22924;SDS011;11628;51.072;3.712;2022-12-29T17:19:32;12.38;;;2.75;;
22924;SDS011;11628;51.072;3.712;2022-12-29T17:21:59;15.73;;;3.28;;
22924;SDS011;11628;51.072;3.712;2022-12-29T17:24:26;18.35;;;3.60;;
22924;SDS011;11628;51.072;3.712;2022-12-29T17:26:52;16.58;;;4.03;;
22924;SDS011;11628;51.072;3.712;2022-12-29T17:31:54;13.68;;;3.20;;
22924;SDS011;11628;51.072;3.712;2022-12-29T17:34:19;13.27;;;3.15;;
22924;SDS011;11628;51.072;3.712;2022-12-29T17:36:45;14.95;;;3.70;;
22924;SDS011;11628;51.072;3.712;2022-12-29T17:39:11;17.98;;;3.80;;
22924;SDS011;11628;51.072;3.712;2022-12-29T17:41:37;15.38;;;2.95;;
22924;SDS011;11628;51.072;3.712;2022-12-29T17:44:03;13.00;;;3.30;;
22924;SDS011;11628;51.072;3.712;2022-12-29T17:46:30;12.68;;;3.25;;
22924;SDS011;11628;51.072;3.712;2022-12-29T17:48:57;17.27;;;4.43;;
22924;SDS011;11628;51.072;3.712;2022-12-29T17:51:23;30.58;;;10.90;;
22924;SDS011;11628;51.072;3.712;2022-12-29T17:53:49;36.30;;;16.92;;
22924;SDS011;11628;51.072;3.712;2022-12-29T17:56:16;13.20;;;2.78;;
22924;SDS011;11628;51.072;3.712;2022-12-29T17:58:42;18.38;;;5.22;;
22924;SDS011;11628;51.072;3.712;2022-12-29T18:01:09;17.33;;;3.50;;
22924;SDS011;11628;51.072;3.712;2022-12-29T18:03:36;12.02;;;2.75;;